Aviation Digital Data Service (ADDS)

Output produced by METARs form (0418 UTC 19 February 2019)
found at http://www.aviationweather.gov/metar/data/
 
METAR text: LTBJ 190350Z VRB01KT 4500 BR NSC 02/01 Q1020 NOSIG RMK RWY16 00000KT
Conditions at: LTBJ (IZMIR/ADNAN MEND, TR) observed 0350 UTC 19 February 2019
Temperature: 2.0°C (36°F)
Dewpoint: 1.0°C (34°F) [RH = 93%]
Pressure (altimeter): 30.12 inches Hg (1020.0 mb)
Winds: variable direction winds at 1 MPH (1 knots; 0.5 m/s)
Visibility: 2.80 miles (4.51 km)
Ceiling: at least 12,000 feet AGL
Clouds: sky clear below 12,000 feet AGL
Weather: BR  (mist)

METAR text: LTBJ 190320Z 34003KT 310V030 5000 BR NSC 02/01 Q1020 NOSIG RMK RWY16 00000KT
Conditions at: LTBJ (IZMIR/ADNAN MEND, TR) observed 0320 UTC 19 February 2019
Temperature: 2.0°C (36°F)
Dewpoint: 1.0°C (34°F) [RH = 93%]
Pressure (altimeter): 30.12 inches Hg (1020.0 mb)
Winds: from the NNW (340 degrees) at 3 MPH (3 knots; 1.5 m/s)
Visibility: 3 miles ( 5 km)
Ceiling: at least 12,000 feet AGL
Clouds: sky clear below 12,000 feet AGL
Weather: BR  (mist)

METAR text: LTBJ 190250Z 34003KT 6000 NSC 02/01 Q1021 NOSIG RMK RWY16 VRB02KT
Conditions at: LTBJ (IZMIR/ADNAN MEND, TR) observed 0250 UTC 19 February 2019
Temperature: 2.0°C (36°F)
Dewpoint: 1.0°C (34°F) [RH = 93%]
Pressure (altimeter): 30.15 inches Hg (1021.0 mb)
Winds: from the NNW (340 degrees) at 3 MPH (3 knots; 1.5 m/s)
Visibility: 4 miles ( 6 km)
Ceiling: at least 12,000 feet AGL
Clouds: sky clear below 12,000 feet AGL
Weather: no significant weather observed at this time

METAR text: LTBJ 190220Z 35003KT 7000 NSC 02/01 Q1021 NOSIG RMK RWY16 VRB02KT
Conditions at: LTBJ (IZMIR/ADNAN MEND, TR) observed 0220 UTC 19 February 2019
Temperature: 2.0°C (36°F)
Dewpoint: 1.0°C (34°F) [RH = 93%]
Pressure (altimeter): 30.15 inches Hg (1021.0 mb)
Winds: from the N (350 degrees) at 3 MPH (3 knots; 1.5 m/s)
Visibility: 4 miles ( 7 km)
Ceiling: at least 12,000 feet AGL
Clouds: sky clear below 12,000 feet AGL
Weather: no significant weather observed at this time

METAR text: LTBJ 190150Z 34004KT 7000 NSC 02/01 Q1021 NOSIG RMK RWY16 VRB02KT
Conditions at: LTBJ (IZMIR/ADNAN MEND, TR) observed 0150 UTC 19 February 2019
Temperature: 2.0°C (36°F)
Dewpoint: 1.0°C (34°F) [RH = 93%]
Pressure (altimeter): 30.15 inches Hg (1021.0 mb)
Winds: from the NNW (340 degrees) at 5 MPH (4 knots; 2.1 m/s)
Visibility: 4 miles ( 7 km)
Ceiling: at least 12,000 feet AGL
Clouds: sky clear below 12,000 feet AGL
Weather: no significant weather observed at this time

METAR text: LTBJ 190120Z 33002KT 8000 NSC 03/01 Q1021 NOSIG RMK RWY16 00000KT
Conditions at: LTBJ (IZMIR/ADNAN MEND, TR) observed 0120 UTC 19 February 2019
Temperature: 3.0°C (37°F)
Dewpoint: 1.0°C (34°F) [RH = 87%]
Pressure (altimeter): 30.15 inches Hg (1021.0 mb)
Winds: from the NNW (330 degrees) at 2 MPH (2 knots; 1.0 m/s)
Visibility: 5 miles ( 8 km)
Ceiling: at least 12,000 feet AGL
Clouds: sky clear below 12,000 feet AGL
Weather: no significant weather observed at this time

METAR text: LTBJ 190050Z 35003KT CAVOK 03/02 Q1021 NOSIG RMK RWY16 VRB02KT
Conditions at: LTBJ (IZMIR/ADNAN MEND, TR) observed 0050 UTC 19 February 2019
Temperature: 3.0°C (37°F)
Dewpoint: 2.0°C (36°F) [RH = 93%]
Pressure (altimeter): 30.15 inches Hg (1021.0 mb)
Winds: from the N (350 degrees) at 3 MPH (3 knots; 1.5 m/s)
Visibility: 6 or more miles (10+ km)
Ceiling: ceiling and visibility are OK
Clouds: unknown
Weather: no significant weather observed at this time

METAR text: LTBJ 190020Z 00000KT 7000 NSC 03/02 Q1021 NOSIG RMK RWY16 00000KT
Conditions at: LTBJ (IZMIR/ADNAN MEND, TR) observed 0020 UTC 19 February 2019
Temperature: 3.0°C (37°F)
Dewpoint: 2.0°C (36°F) [RH = 93%]
Pressure (altimeter): 30.15 inches Hg (1021.0 mb)
Winds: calm
Visibility: 4 miles ( 7 km)
Ceiling: at least 12,000 feet AGL
Clouds: sky clear below 12,000 feet AGL
Weather: no significant weather observed at this time

METAR text: LTBJ 182350Z VRB01KT 7000 NSC 04/03 Q1021 NOSIG RMK RWY16 00000KT
Conditions at: LTBJ (IZMIR/ADNAN MEND, TR) observed 2350 UTC 18 February 2019
Temperature: 4.0°C (39°F)
Dewpoint: 3.0°C (37°F) [RH = 93%]
Pressure (altimeter): 30.15 inches Hg (1021.0 mb)
Winds: variable direction winds at 1 MPH (1 knots; 0.5 m/s)
Visibility: 4 miles ( 7 km)
Ceiling: at least 12,000 feet AGL
Clouds: sky clear below 12,000 feet AGL
Weather: no significant weather observed at this time

METAR text: LTBJ 182320Z 32002KT 8000 NSC 05/03 Q1021 NOSIG RMK RWY16 VRB02KT
Conditions at: LTBJ (IZMIR/ADNAN MEND, TR) observed 2320 UTC 18 February 2019
Temperature: 5.0°C (41°F)
Dewpoint: 3.0°C (37°F) [RH = 87%]
Pressure (altimeter): 30.15 inches Hg (1021.0 mb)
Winds: from the NW (320 degrees) at 2 MPH (2 knots; 1.0 m/s)
Visibility: 5 miles ( 8 km)
Ceiling: at least 12,000 feet AGL
Clouds: sky clear below 12,000 feet AGL
Weather: no significant weather observed at this time

METAR text: LTBJ 182250Z 00000KT 8000 NSC 04/03 Q1021 NOSIG RMK RWY16 VRB02KT
Conditions at: LTBJ (IZMIR/ADNAN MEND, TR) observed 2250 UTC 18 February 2019
Temperature: 4.0°C (39°F)
Dewpoint: 3.0°C (37°F) [RH = 93%]
Pressure (altimeter): 30.15 inches Hg (1021.0 mb)
Winds: calm
Visibility: 5 miles ( 8 km)
Ceiling: at least 12,000 feet AGL
Clouds: sky clear below 12,000 feet AGL
Weather: no significant weather observed at this time

METAR text: LTBJ 182220Z VRB01KT CAVOK 05/03 Q1021 NOSIG RMK RWY16 VRB01KT
Conditions at: LTBJ (IZMIR/ADNAN MEND, TR) observed 2220 UTC 18 February 2019
Temperature: 5.0°C (41°F)
Dewpoint: 3.0°C (37°F) [RH = 87%]
Pressure (altimeter): 30.15 inches Hg (1021.0 mb)
Winds: variable direction winds at 1 MPH (1 knots; 0.5 m/s)
Visibility: 6 or more miles (10+ km)
Ceiling: ceiling and visibility are OK
Clouds: unknown
Weather: no significant weather observed at this time

METAR text: LTBJ 182150Z VRB02KT CAVOK 05/03 Q1021 NOSIG RMK RWY16 VRB01KT
Conditions at: LTBJ (IZMIR/ADNAN MEND, TR) observed 2150 UTC 18 February 2019
Temperature: 5.0°C (41°F)
Dewpoint: 3.0°C (37°F) [RH = 87%]
Pressure (altimeter): 30.15 inches Hg (1021.0 mb)
Winds: variable direction winds at 2 MPH (2 knots; 1.0 m/s)
Visibility: 6 or more miles (10+ km)
Ceiling: ceiling and visibility are OK
Clouds: unknown
Weather: no significant weather observed at this time

METAR text: LTBJ 182120Z VRB02KT CAVOK 06/04 Q1021 NOSIG RMK RWY16 16004KT 130V190
Conditions at: LTBJ (IZMIR/ADNAN MEND, TR) observed 2120 UTC 18 February 2019
Temperature: 6.0°C (43°F)
Dewpoint: 4.0°C (39°F) [RH = 87%]
Pressure (altimeter): 30.15 inches Hg (1021.0 mb)
Winds: variable direction winds at 2 MPH (2 knots; 1.0 m/s)
Visibility: 6 or more miles (10+ km)
Ceiling: ceiling and visibility are OK
Clouds: unknown
Weather: no significant weather observed at this time

METAR text: LTBJ 182050Z 00000KT CAVOK 07/04 Q1021 NOSIG RMK RWY16 18003KT 140V220
Conditions at: LTBJ (IZMIR/ADNAN MEND, TR) observed 2050 UTC 18 February 2019
Temperature: 7.0°C (45°F)
Dewpoint: 4.0°C (39°F) [RH = 81%]
Pressure (altimeter): 30.15 inches Hg (1021.0 mb)
Winds: calm
Visibility: 6 or more miles (10+ km)
Ceiling: ceiling and visibility are OK
Clouds: unknown
Weather: no significant weather observed at this time

METAR text: LTBJ 182020Z VRB01KT CAVOK 06/03 Q1021 NOSIG RMK RWY16 VRB02KT
Conditions at: LTBJ (IZMIR/ADNAN MEND, TR) observed 2020 UTC 18 February 2019
Temperature: 6.0°C (43°F)
Dewpoint: 3.0°C (37°F) [RH = 81%]
Pressure (altimeter): 30.15 inches Hg (1021.0 mb)
Winds: variable direction winds at 1 MPH (1 knots; 0.5 m/s)
Visibility: 6 or more miles (10+ km)
Ceiling: ceiling and visibility are OK
Clouds: unknown
Weather: no significant weather observed at this time

METAR text: LTBJ 181950Z 21002KT CAVOK 07/03 Q1021 NOSIG RMK RWY16 VRB03KT
Conditions at: LTBJ (IZMIR/ADNAN MEND, TR) observed 1950 UTC 18 February 2019
Temperature: 7.0°C (45°F)
Dewpoint: 3.0°C (37°F) [RH = 76%]
Pressure (altimeter): 30.15 inches Hg (1021.0 mb)
Winds: from the SSW (210 degrees) at 2 MPH (2 knots; 1.0 m/s)
Visibility: 6 or more miles (10+ km)
Ceiling: ceiling and visibility are OK
Clouds: unknown
Weather: no significant weather observed at this time

METAR text: LTBJ 181920Z 00000KT CAVOK 09/03 Q1021 NOSIG RMK RWY16 VRB02KT
Conditions at: LTBJ (IZMIR/ADNAN MEND, TR) observed 1920 UTC 18 February 2019
Temperature: 9.0°C (48°F)
Dewpoint: 3.0°C (37°F) [RH = 66%]
Pressure (altimeter): 30.15 inches Hg (1021.0 mb)
Winds: calm
Visibility: 6 or more miles (10+ km)
Ceiling: ceiling and visibility are OK
Clouds: unknown
Weather: no significant weather observed at this time

METAR text: LTBJ 181850Z 36007KT CAVOK 10/04 Q1021 NOSIG RMK RWY16 34010KT
Conditions at: LTBJ (IZMIR/ADNAN MEND, TR) observed 1850 UTC 18 February 2019
Temperature: 10.0°C (50°F)
Dewpoint: 4.0°C (39°F) [RH = 66%]
Pressure (altimeter): 30.15 inches Hg (1021.0 mb)
Winds: from the N (360 degrees) at 8 MPH (7 knots; 3.6 m/s)
Visibility: 6 or more miles (10+ km)
Ceiling: ceiling and visibility are OK
Clouds: unknown
Weather: no significant weather observed at this time

METAR text: LTBJ 181820Z 02009KT CAVOK 11/04 Q1021 NOSIG RMK RWY16 35012KT
Conditions at: LTBJ (IZMIR/ADNAN MEND, TR) observed 1820 UTC 18 February 2019
Temperature: 11.0°C (52°F)
Dewpoint: 4.0°C (39°F) [RH = 62%]
Pressure (altimeter): 30.15 inches Hg (1021.0 mb)
Winds: from the NNE (20 degrees) at 10 MPH (9 knots; 4.6 m/s)
Visibility: 6 or more miles (10+ km)
Ceiling: ceiling and visibility are OK
Clouds: unknown
Weather: no significant weather observed at this time

METAR text: LTBJ 181750Z 02008KT CAVOK 11/03 Q1021 NOSIG RMK RWY16 35009KT
Conditions at: LTBJ (IZMIR/ADNAN MEND, TR) observed 1750 UTC 18 February 2019
Temperature: 11.0°C (52°F)
Dewpoint: 3.0°C (37°F) [RH = 58%]
Pressure (altimeter): 30.15 inches Hg (1021.0 mb)
Winds: from the NNE (20 degrees) at 9 MPH (8 knots; 4.1 m/s)
Visibility: 6 or more miles (10+ km)
Ceiling: ceiling and visibility are OK
Clouds: unknown
Weather: no significant weather observed at this time

METAR text: LTBJ 181720Z 02010KT CAVOK 12/04 Q1021 NOSIG RMK RWY16 36010KT
Conditions at: LTBJ (IZMIR/ADNAN MEND, TR) observed 1720 UTC 18 February 2019
Temperature: 12.0°C (54°F)
Dewpoint: 4.0°C (39°F) [RH = 58%]
Pressure (altimeter): 30.15 inches Hg (1021.0 mb)
Winds: from the NNE (20 degrees) at 12 MPH (10 knots; 5.1 m/s)
Visibility: 6 or more miles (10+ km)
Ceiling: ceiling and visibility are OK
Clouds: unknown
Weather: no significant weather observed at this time

METAR text: LTBJ 181650Z 01011KT CAVOK 11/05 Q1020 NOSIG RMK RWY16 35008KT
Conditions at: LTBJ (IZMIR/ADNAN MEND, TR) observed 1650 UTC 18 February 2019
Temperature: 11.0°C (52°F)
Dewpoint: 5.0°C (41°F) [RH = 66%]
Pressure (altimeter): 30.12 inches Hg (1020.0 mb)
Winds: from the N (10 degrees) at 13 MPH (11 knots; 5.7 m/s)
Visibility: 6 or more miles (10+ km)
Ceiling: ceiling and visibility are OK
Clouds: unknown
Weather: no significant weather observed at this time

METAR text: LTBJ 181620Z 01012KT CAVOK 12/05 Q1020 NOSIG RMK RWY16 34012KT
Conditions at: LTBJ (IZMIR/ADNAN MEND, TR) observed 1620 UTC 18 February 2019
Temperature: 12.0°C (54°F)
Dewpoint: 5.0°C (41°F) [RH = 62%]
Pressure (altimeter): 30.12 inches Hg (1020.0 mb)
Winds: from the N (10 degrees) at 14 MPH (12 knots; 6.2 m/s)
Visibility: 6 or more miles (10+ km)
Ceiling: ceiling and visibility are OK
Clouds: unknown
Weather: no significant weather observed at this time

METAR text: LTBJ 181550Z 01012KT CAVOK 12/05 Q1020 NOSIG RMK RWY16 34012KT
Conditions at: LTBJ (IZMIR/ADNAN MEND, TR) observed 1550 UTC 18 February 2019
Temperature: 12.0°C (54°F)
Dewpoint: 5.0°C (41°F) [RH = 62%]
Pressure (altimeter): 30.12 inches Hg (1020.0 mb)
Winds: from the N (10 degrees) at 14 MPH (12 knots; 6.2 m/s)
Visibility: 6 or more miles (10+ km)
Ceiling: ceiling and visibility are OK
Clouds: unknown
Weather: no significant weather observed at this time

METAR text: LTBJ 181520Z 35013KT CAVOK 13/05 Q1020 NOSIG RMK RWY16 33011KT
Conditions at: LTBJ (IZMIR/ADNAN MEND, TR) observed 1520 UTC 18 February 2019
Temperature: 13.0°C (55°F)
Dewpoint: 5.0°C (41°F) [RH = 58%]
Pressure (altimeter): 30.12 inches Hg (1020.0 mb)
Winds: from the N (350 degrees) at 15 MPH (13 knots; 6.7 m/s)
Visibility: 6 or more miles (10+ km)
Ceiling: ceiling and visibility are OK
Clouds: unknown
Weather: no significant weather observed at this time

METAR text: LTBJ 181450Z 36015KT CAVOK 14/05 Q1020 NOSIG RMK RWY16 34014KT
Conditions at: LTBJ (IZMIR/ADNAN MEND, TR) observed 1450 UTC 18 February 2019
Temperature: 14.0°C (57°F)
Dewpoint: 5.0°C (41°F) [RH = 55%]
Pressure (altimeter): 30.12 inches Hg (1020.0 mb)
Winds: from the N (360 degrees) at 17 MPH (15 knots; 7.7 m/s)
Visibility: 6 or more miles (10+ km)
Ceiling: ceiling and visibility are OK
Clouds: unknown
Weather: no significant weather observed at this time

METAR text: LTBJ 181420Z 35014KT CAVOK 14/04 Q1020 NOSIG RMK RWY16 33014KT
Conditions at: LTBJ (IZMIR/ADNAN MEND, TR) observed 1420 UTC 18 February 2019
Temperature: 14.0°C (57°F)
Dewpoint: 4.0°C (39°F) [RH = 51%]
Pressure (altimeter): 30.12 inches Hg (1020.0 mb)
Winds: from the N (350 degrees) at 16 MPH (14 knots; 7.2 m/s)
Visibility: 6 or more miles (10+ km)
Ceiling: ceiling and visibility are OK
Clouds: unknown
Weather: no significant weather observed at this time

METAR text: LTBJ 181350Z 36015KT CAVOK 14/04 Q1020 NOSIG RMK RWY16 33013KT
Conditions at: LTBJ (IZMIR/ADNAN MEND, TR) observed 1350 UTC 18 February 2019
Temperature: 14.0°C (57°F)
Dewpoint: 4.0°C (39°F) [RH = 51%]
Pressure (altimeter): 30.12 inches Hg (1020.0 mb)
Winds: from the N (360 degrees) at 17 MPH (15 knots; 7.7 m/s)
Visibility: 6 or more miles (10+ km)
Ceiling: ceiling and visibility are OK
Clouds: unknown
Weather: no significant weather observed at this time

METAR text: LTBJ 181320Z 36014KT CAVOK 14/04 Q1020 NOSIG RMK RWY16 35012KT
Conditions at: LTBJ (IZMIR/ADNAN MEND, TR) observed 1320 UTC 18 February 2019
Temperature: 14.0°C (57°F)
Dewpoint: 4.0°C (39°F) [RH = 51%]
Pressure (altimeter): 30.12 inches Hg (1020.0 mb)
Winds: from the N (360 degrees) at 16 MPH (14 knots; 7.2 m/s)
Visibility: 6 or more miles (10+ km)
Ceiling: ceiling and visibility are OK
Clouds: unknown
Weather: no significant weather observed at this time

METAR text: LTBJ 181250Z 36014KT CAVOK 15/04 Q1020 NOSIG RMK RWY16 34013KT
Conditions at: LTBJ (IZMIR/ADNAN MEND, TR) observed 1250 UTC 18 February 2019
Temperature: 15.0°C (59°F)
Dewpoint: 4.0°C (39°F) [RH = 48%]
Pressure (altimeter): 30.12 inches Hg (1020.0 mb)
Winds: from the N (360 degrees) at 16 MPH (14 knots; 7.2 m/s)
Visibility: 6 or more miles (10+ km)
Ceiling: ceiling and visibility are OK
Clouds: unknown
Weather: no significant weather observed at this time

METAR text: LTBJ 181220Z 35013KT CAVOK 15/04 Q1020 NOSIG RMK RWY16 33012KT
Conditions at: LTBJ (IZMIR/ADNAN MEND, TR) observed 1220 UTC 18 February 2019
Temperature: 15.0°C (59°F)
Dewpoint: 4.0°C (39°F) [RH = 48%]
Pressure (altimeter): 30.12 inches Hg (1020.0 mb)
Winds: from the N (350 degrees) at 15 MPH (13 knots; 6.7 m/s)
Visibility: 6 or more miles (10+ km)
Ceiling: ceiling and visibility are OK
Clouds: unknown
Weather: no significant weather observed at this time

METAR text: LTBJ 181150Z 35013KT CAVOK 14/04 Q1021 NOSIG RMK RWY16 34012KT
Conditions at: LTBJ (IZMIR/ADNAN MEND, TR) observed 1150 UTC 18 February 2019
Temperature: 14.0°C (57°F)
Dewpoint: 4.0°C (39°F) [RH = 51%]
Pressure (altimeter): 30.15 inches Hg (1021.0 mb)
Winds: from the N (350 degrees) at 15 MPH (13 knots; 6.7 m/s)
Visibility: 6 or more miles (10+ km)
Ceiling: ceiling and visibility are OK
Clouds: unknown
Weather: no significant weather observed at this time

METAR text: LTBJ 181120Z 36012KT CAVOK 14/03 Q1021 NOSIG RMK RWY16 34012KT
Conditions at: LTBJ (IZMIR/ADNAN MEND, TR) observed 1120 UTC 18 February 2019
Temperature: 14.0°C (57°F)
Dewpoint: 3.0°C (37°F) [RH = 47%]
Pressure (altimeter): 30.15 inches Hg (1021.0 mb)
Winds: from the N (360 degrees) at 14 MPH (12 knots; 6.2 m/s)
Visibility: 6 or more miles (10+ km)
Ceiling: ceiling and visibility are OK
Clouds: unknown
Weather: no significant weather observed at this time

METAR text: LTBJ 181050Z 35009KT 9000 NSC 14/04 Q1021 NOSIG RMK RWY16 33012KT
Conditions at: LTBJ (IZMIR/ADNAN MEND, TR) observed 1050 UTC 18 February 2019
Temperature: 14.0°C (57°F)
Dewpoint: 4.0°C (39°F) [RH = 51%]
Pressure (altimeter): 30.15 inches Hg (1021.0 mb)
Winds: from the N (350 degrees) at 10 MPH (9 knots; 4.6 m/s)
Visibility: 6 miles ( 9 km)
Ceiling: at least 12,000 feet AGL
Clouds: sky clear below 12,000 feet AGL
Weather: no significant weather observed at this time

METAR text: LTBJ 181020Z 36010KT 8000 NSC 13/03 Q1022 NOSIG RMK RWY16 35009KT 320V030
Conditions at: LTBJ (IZMIR/ADNAN MEND, TR) observed 1020 UTC 18 February 2019
Temperature: 13.0°C (55°F)
Dewpoint: 3.0°C (37°F) [RH = 51%]
Pressure (altimeter): 30.18 inches Hg (1022.0 mb)
Winds: from the N (360 degrees) at 12 MPH (10 knots; 5.1 m/s)
Visibility: 5 miles ( 8 km)
Ceiling: at least 12,000 feet AGL
Clouds: sky clear below 12,000 feet AGL
Weather: no significant weather observed at this time

METAR text: LTBJ 180950Z 35011KT 7000 NSC 13/04 Q1022 NOSIG RMK RWY16 35010KT
Conditions at: LTBJ (IZMIR/ADNAN MEND, TR) observed 0950 UTC 18 February 2019
Temperature: 13.0°C (55°F)
Dewpoint: 4.0°C (39°F) [RH = 54%]
Pressure (altimeter): 30.18 inches Hg (1022.0 mb)
Winds: from the N (350 degrees) at 13 MPH (11 knots; 5.7 m/s)
Visibility: 4 miles ( 7 km)
Ceiling: at least 12,000 feet AGL
Clouds: sky clear below 12,000 feet AGL
Weather: no significant weather observed at this time

METAR text: LTBJ 180920Z 35008KT 7000 NSC 12/04 Q1022 NOSIG RMK RWY16 35009KT
Conditions at: LTBJ (IZMIR/ADNAN MEND, TR) observed 0920 UTC 18 February 2019
Temperature: 12.0°C (54°F)
Dewpoint: 4.0°C (39°F) [RH = 58%]
Pressure (altimeter): 30.18 inches Hg (1022.0 mb)
Winds: from the N (350 degrees) at 9 MPH (8 knots; 4.1 m/s)
Visibility: 4 miles ( 7 km)
Ceiling: at least 12,000 feet AGL
Clouds: sky clear below 12,000 feet AGL
Weather: no significant weather observed at this time

METAR text: LTBJ 180850Z 01006KT 340V050 7000 NSC 11/03 Q1022 NOSIG RMK RWY16 33009KT
Conditions at: LTBJ (IZMIR/ADNAN MEND, TR) observed 0850 UTC 18 February 2019
Temperature: 11.0°C (52°F)
Dewpoint: 3.0°C (37°F) [RH = 58%]
Pressure (altimeter): 30.18 inches Hg (1022.0 mb)
Winds: from the N (10 degrees) at 7 MPH (6 knots; 3.1 m/s)
Visibility: 4 miles ( 7 km)
Ceiling: at least 12,000 feet AGL
Clouds: sky clear below 12,000 feet AGL
Weather: no significant weather observed at this time

METAR text: LTBJ 180820Z 01008KT 340V040 7000 NSC 10/03 Q1022 NOSIG RMK RWY16 35008KT
Conditions at: LTBJ (IZMIR/ADNAN MEND, TR) observed 0820 UTC 18 February 2019
Temperature: 10.0°C (50°F)
Dewpoint: 3.0°C (37°F) [RH = 62%]
Pressure (altimeter): 30.18 inches Hg (1022.0 mb)
Winds: from the N (10 degrees) at 9 MPH (8 knots; 4.1 m/s)
Visibility: 4 miles ( 7 km)
Ceiling: at least 12,000 feet AGL
Clouds: sky clear below 12,000 feet AGL
Weather: no significant weather observed at this time

METAR text: LTBJ 180750Z 36005KT 300V060 6000 NSC 09/03 Q1022 NOSIG RMK RWY16 36007KT
Conditions at: LTBJ (IZMIR/ADNAN MEND, TR) observed 0750 UTC 18 February 2019
Temperature: 9.0°C (48°F)
Dewpoint: 3.0°C (37°F) [RH = 66%]
Pressure (altimeter): 30.18 inches Hg (1022.0 mb)
Winds: from the N (360 degrees) at 6 MPH (5 knots; 2.6 m/s)
Visibility: 4 miles ( 6 km)
Ceiling: at least 12,000 feet AGL
Clouds: sky clear below 12,000 feet AGL
Weather: no significant weather observed at this time

METAR text: LTBJ 180720Z VRB02KT 6000 NSC 07/03 Q1023 BECMG TL0900 35013KT
Conditions at: LTBJ (IZMIR/ADNAN MEND, TR) observed 0720 UTC 18 February 2019
Temperature: 7.0°C (45°F)
Dewpoint: 3.0°C (37°F) [RH = 76%]
Pressure (altimeter): 30.21 inches Hg (1023.0 mb)
Winds: variable direction winds at 2 MPH (2 knots; 1.0 m/s)
Visibility: 4 miles ( 6 km)
Ceiling: at least 12,000 feet AGL
Clouds: sky clear below 12,000 feet AGL
Weather: no significant weather observed at this time

METAR text: LTBJ 180650Z VRB02KT 6000 NSC 05/03 Q1023 NOSIG RMK RWY16 VRB01KT
Conditions at: LTBJ (IZMIR/ADNAN MEND, TR) observed 0650 UTC 18 February 2019
Temperature: 5.0°C (41°F)
Dewpoint: 3.0°C (37°F) [RH = 87%]
Pressure (altimeter): 30.21 inches Hg (1023.0 mb)
Winds: variable direction winds at 2 MPH (2 knots; 1.0 m/s)
Visibility: 4 miles ( 6 km)
Ceiling: at least 12,000 feet AGL
Clouds: sky clear below 12,000 feet AGL
Weather: no significant weather observed at this time

METAR text: LTBJ 180620Z 05004KT 010V120 6000 NSC 05/02 Q1022 NOSIG RMK RWY16 VRB02KT
Conditions at: LTBJ (IZMIR/ADNAN MEND, TR) observed 0620 UTC 18 February 2019
Temperature: 5.0°C (41°F)
Dewpoint: 2.0°C (36°F) [RH = 81%]
Pressure (altimeter): 30.18 inches Hg (1022.0 mb)
Winds: from the NE (50 degrees) at 5 MPH (4 knots; 2.1 m/s)
Visibility: 4 miles ( 6 km)
Ceiling: at least 12,000 feet AGL
Clouds: sky clear below 12,000 feet AGL
Weather: no significant weather observed at this time

METAR text: LTBJ 180550Z VRB02KT 6000 NSC 02/M00 Q1022 NOSIG RMK RWY16 00000KT
Conditions at: LTBJ (IZMIR/ADNAN MEND, TR) observed 0550 UTC 18 February 2019
Temperature: 2.0°C (36°F)
Dewpoint: 0.0°C (32°F) [RH = 87%]
Pressure (altimeter): 30.18 inches Hg (1022.0 mb)
Winds: variable direction winds at 2 MPH (2 knots; 1.0 m/s)
Visibility: 4 miles ( 6 km)
Ceiling: at least 12,000 feet AGL
Clouds: sky clear below 12,000 feet AGL
Weather: no significant weather observed at this time

METAR text: LTBJ 180520Z VRB02KT 6000 NSC 01/M00 Q1022 NOSIG RMK RWY16 VRB03KT
Conditions at: LTBJ (IZMIR/ADNAN MEND, TR) observed 0520 UTC 18 February 2019
Temperature: 1.0°C (34°F)
Dewpoint: 0.0°C (32°F) [RH = 93%]
Pressure (altimeter): 30.18 inches Hg (1022.0 mb)
Winds: variable direction winds at 2 MPH (2 knots; 1.0 m/s)
Visibility: 4 miles ( 6 km)
Ceiling: at least 12,000 feet AGL
Clouds: sky clear below 12,000 feet AGL
Weather: no significant weather observed at this time

METAR text: LTBJ 180450Z 00000KT 6000 NSC 01/00 Q1022 NOSIG RMK RWY16 32001KT
Conditions at: LTBJ (IZMIR/ADNAN MEND, TR) observed 0450 UTC 18 February 2019
Temperature: 1.0°C (34°F)
Dewpoint: 0.0°C (32°F) [RH = 93%]
Pressure (altimeter): 30.18 inches Hg (1022.0 mb)
Winds: calm
Visibility: 4 miles ( 6 km)
Ceiling: at least 12,000 feet AGL
Clouds: sky clear below 12,000 feet AGL
Weather: no significant weather observed at this time

METAR text: LTBJ 180420Z VRB02KT 8000 NSC 01/M00 Q1022 NOSIG RMK RWY16 VRB01KT
Conditions at: LTBJ (IZMIR/ADNAN MEND, TR) observed 0420 UTC 18 February 2019
Temperature: 1.0°C (34°F)
Dewpoint: 0.0°C (32°F) [RH = 93%]
Pressure (altimeter): 30.18 inches Hg (1022.0 mb)
Winds: variable direction winds at 2 MPH (2 knots; 1.0 m/s)
Visibility: 5 miles ( 8 km)
Ceiling: at least 12,000 feet AGL
Clouds: sky clear below 12,000 feet AGL
Weather: no significant weather observed at this time

METAR text: LTBJ 180350Z 00000KT 8000 NSC 01/M00 Q1022 NOSIG RMK RWY16 VRB01KT
Conditions at: LTBJ (IZMIR/ADNAN MEND, TR) observed 0350 UTC 18 February 2019
Temperature: 1.0°C (34°F)
Dewpoint: 0.0°C (32°F) [RH = 93%]
Pressure (altimeter): 30.18 inches Hg (1022.0 mb)
Winds: calm
Visibility: 5 miles ( 8 km)
Ceiling: at least 12,000 feet AGL
Clouds: sky clear below 12,000 feet AGL
Weather: no significant weather observed at this time

METAR text: LTBJ 180320Z VRB02KT 9000 NSC 01/M00 Q1021 NOSIG RMK RWY16 00000KT
Conditions at: LTBJ (IZMIR/ADNAN MEND, TR) observed 0320 UTC 18 February 2019
Temperature: 1.0°C (34°F)
Dewpoint: 0.0°C (32°F) [RH = 93%]
Pressure (altimeter): 30.15 inches Hg (1021.0 mb)
Winds: variable direction winds at 2 MPH (2 knots; 1.0 m/s)
Visibility: 6 miles ( 9 km)
Ceiling: at least 12,000 feet AGL
Clouds: sky clear below 12,000 feet AGL
Weather: no significant weather observed at this time

METAR text: LTBJ 180250Z 35003KT 330V030 9000 NSC 01/M00 Q1021 NOSIG RMK RWY16 06001KT
Conditions at: LTBJ (IZMIR/ADNAN MEND, TR) observed 0250 UTC 18 February 2019
Temperature: 1.0°C (34°F)
Dewpoint: 0.0°C (32°F) [RH = 93%]
Pressure (altimeter): 30.15 inches Hg (1021.0 mb)
Winds: from the N (350 degrees) at 3 MPH (3 knots; 1.5 m/s)
Visibility: 6 miles ( 9 km)
Ceiling: at least 12,000 feet AGL
Clouds: sky clear below 12,000 feet AGL
Weather: no significant weather observed at this time

METAR text: LTBJ 180220Z 35005KT 9000 NSC 01/M01 Q1021 NOSIG RMK RWY16 VRB02KT
Conditions at: LTBJ (IZMIR/ADNAN MEND, TR) observed 0220 UTC 18 February 2019
Temperature: 1.0°C (34°F)
Dewpoint: -1.0°C (30°F) [RH = 86%]
Pressure (altimeter): 30.15 inches Hg (1021.0 mb)
Winds: from the N (350 degrees) at 6 MPH (5 knots; 2.6 m/s)
Visibility: 6 miles ( 9 km)
Ceiling: at least 12,000 feet AGL
Clouds: sky clear below 12,000 feet AGL
Weather: no significant weather observed at this time

METAR text: LTBJ 180150Z VRB02KT 8000 NSC 01/M00 Q1021 NOSIG RMK RWY16 00000KT
Conditions at: LTBJ (IZMIR/ADNAN MEND, TR) observed 0150 UTC 18 February 2019
Temperature: 1.0°C (34°F)
Dewpoint: 0.0°C (32°F) [RH = 93%]
Pressure (altimeter): 30.15 inches Hg (1021.0 mb)
Winds: variable direction winds at 2 MPH (2 knots; 1.0 m/s)
Visibility: 5 miles ( 8 km)
Ceiling: at least 12,000 feet AGL
Clouds: sky clear below 12,000 feet AGL
Weather: no significant weather observed at this time

METAR text: LTBJ 180120Z 00000KT 8000 NSC 02/01 Q1021 NOSIG RMK RWY16 14003KT 080V170
Conditions at: LTBJ (IZMIR/ADNAN MEND, TR) observed 0120 UTC 18 February 2019
Temperature: 2.0°C (36°F)
Dewpoint: 1.0°C (34°F) [RH = 93%]
Pressure (altimeter): 30.15 inches Hg (1021.0 mb)
Winds: calm
Visibility: 5 miles ( 8 km)
Ceiling: at least 12,000 feet AGL
Clouds: sky clear below 12,000 feet AGL
Weather: no significant weather observed at this time

METAR text: LTBJ 180050Z VRB02KT 8000 NSC 02/01 Q1022 NOSIG RMK RWY16 VRB02KT
Conditions at: LTBJ (IZMIR/ADNAN MEND, TR) observed 0050 UTC 18 February 2019
Temperature: 2.0°C (36°F)
Dewpoint: 1.0°C (34°F) [RH = 93%]
Pressure (altimeter): 30.18 inches Hg (1022.0 mb)
Winds: variable direction winds at 2 MPH (2 knots; 1.0 m/s)
Visibility: 5 miles ( 8 km)
Ceiling: at least 12,000 feet AGL
Clouds: sky clear below 12,000 feet AGL
Weather: no significant weather observed at this time

METAR text: LTBJ 180020Z VRB01KT 8000 NSC 02/01 Q1022 NOSIG RMK RWY16 VRB02KT
Conditions at: LTBJ (IZMIR/ADNAN MEND, TR) observed 0020 UTC 18 February 2019
Temperature: 2.0°C (36°F)
Dewpoint: 1.0°C (34°F) [RH = 93%]
Pressure (altimeter): 30.18 inches Hg (1022.0 mb)
Winds: variable direction winds at 1 MPH (1 knots; 0.5 m/s)
Visibility: 5 miles ( 8 km)
Ceiling: at least 12,000 feet AGL
Clouds: sky clear below 12,000 feet AGL
Weather: no significant weather observed at this time

METAR text: LTBJ 172350Z 00000KT 8000 NSC 03/01 Q1022 NOSIG RMK RWY16 02004KT
Conditions at: LTBJ (IZMIR/ADNAN MEND, TR) observed 2350 UTC 17 February 2019
Temperature: 3.0°C (37°F)
Dewpoint: 1.0°C (34°F) [RH = 87%]
Pressure (altimeter): 30.18 inches Hg (1022.0 mb)
Winds: calm
Visibility: 5 miles ( 8 km)
Ceiling: at least 12,000 feet AGL
Clouds: sky clear below 12,000 feet AGL
Weather: no significant weather observed at this time

METAR text: LTBJ 172320Z VRB02KT 8000 NSC 03/01 Q1022 NOSIG RMK RWY16 01005KT
Conditions at: LTBJ (IZMIR/ADNAN MEND, TR) observed 2320 UTC 17 February 2019
Temperature: 3.0°C (37°F)
Dewpoint: 1.0°C (34°F) [RH = 87%]
Pressure (altimeter): 30.18 inches Hg (1022.0 mb)
Winds: variable direction winds at 2 MPH (2 knots; 1.0 m/s)
Visibility: 5 miles ( 8 km)
Ceiling: at least 12,000 feet AGL
Clouds: sky clear below 12,000 feet AGL
Weather: no significant weather observed at this time

METAR text: LTBJ 172250Z VRB02KT 8000 NSC 04/02 Q1022 NOSIG RMK RWY16 01006KT
Conditions at: LTBJ (IZMIR/ADNAN MEND, TR) observed 2250 UTC 17 February 2019
Temperature: 4.0°C (39°F)
Dewpoint: 2.0°C (36°F) [RH = 87%]
Pressure (altimeter): 30.18 inches Hg (1022.0 mb)
Winds: variable direction winds at 2 MPH (2 knots; 1.0 m/s)
Visibility: 5 miles ( 8 km)
Ceiling: at least 12,000 feet AGL
Clouds: sky clear below 12,000 feet AGL
Weather: no significant weather observed at this time

METAR text: LTBJ 172220Z 02009KT 8000 NSC 06/02 Q1022 NOSIG RMK RWY16 01005KT
Conditions at: LTBJ (IZMIR/ADNAN MEND, TR) observed 2220 UTC 17 February 2019
Temperature: 6.0°C (43°F)
Dewpoint: 2.0°C (36°F) [RH = 75%]
Pressure (altimeter): 30.18 inches Hg (1022.0 mb)
Winds: from the NNE (20 degrees) at 10 MPH (9 knots; 4.6 m/s)
Visibility: 5 miles ( 8 km)
Ceiling: at least 12,000 feet AGL
Clouds: sky clear below 12,000 feet AGL
Weather: no significant weather observed at this time

METAR text: LTBJ 172150Z 02009KT 8000 NSC 06/02 Q1022 NOSIG RMK RWY16 01006KT
Conditions at: LTBJ (IZMIR/ADNAN MEND, TR) observed 2150 UTC 17 February 2019
Temperature: 6.0°C (43°F)
Dewpoint: 2.0°C (36°F) [RH = 75%]
Pressure (altimeter): 30.18 inches Hg (1022.0 mb)
Winds: from the NNE (20 degrees) at 10 MPH (9 knots; 4.6 m/s)
Visibility: 5 miles ( 8 km)
Ceiling: at least 12,000 feet AGL
Clouds: sky clear below 12,000 feet AGL
Weather: no significant weather observed at this time

METAR text: LTBJ 172120Z 02009KT 8000 NSC 07/02 Q1022 NOSIG RMK RWY16 02007KT
Conditions at: LTBJ (IZMIR/ADNAN MEND, TR) observed 2120 UTC 17 February 2019
Temperature: 7.0°C (45°F)
Dewpoint: 2.0°C (36°F) [RH = 70%]
Pressure (altimeter): 30.18 inches Hg (1022.0 mb)
Winds: from the NNE (20 degrees) at 10 MPH (9 knots; 4.6 m/s)
Visibility: 5 miles ( 8 km)
Ceiling: at least 12,000 feet AGL
Clouds: sky clear below 12,000 feet AGL
Weather: no significant weather observed at this time

METAR text: LTBJ 172050Z VRB02KT 7000 NSC 05/02 Q1022 NOSIG RMK RWY16 03007KT
Conditions at: LTBJ (IZMIR/ADNAN MEND, TR) observed 2050 UTC 17 February 2019
Temperature: 5.0°C (41°F)
Dewpoint: 2.0°C (36°F) [RH = 81%]
Pressure (altimeter): 30.18 inches Hg (1022.0 mb)
Winds: variable direction winds at 2 MPH (2 knots; 1.0 m/s)
Visibility: 4 miles ( 7 km)
Ceiling: at least 12,000 feet AGL
Clouds: sky clear below 12,000 feet AGL
Weather: no significant weather observed at this time

METAR text: LTBJ 172020Z VRB02KT 7000 NSC 05/02 Q1021 NOSIG RMK RWY16 03007KT
Conditions at: LTBJ (IZMIR/ADNAN MEND, TR) observed 2020 UTC 17 February 2019
Temperature: 5.0°C (41°F)
Dewpoint: 2.0°C (36°F) [RH = 81%]
Pressure (altimeter): 30.15 inches Hg (1021.0 mb)
Winds: variable direction winds at 2 MPH (2 knots; 1.0 m/s)
Visibility: 4 miles ( 7 km)
Ceiling: at least 12,000 feet AGL
Clouds: sky clear below 12,000 feet AGL
Weather: no significant weather observed at this time

METAR text: LTBJ 171950Z 02007KT 7000 NSC 07/03 Q1022 NOSIG RMK RWY16 02006KT
Conditions at: LTBJ (IZMIR/ADNAN MEND, TR) observed 1950 UTC 17 February 2019
Temperature: 7.0°C (45°F)
Dewpoint: 3.0°C (37°F) [RH = 76%]
Pressure (altimeter): 30.18 inches Hg (1022.0 mb)
Winds: from the NNE (20 degrees) at 8 MPH (7 knots; 3.6 m/s)
Visibility: 4 miles ( 7 km)
Ceiling: at least 12,000 feet AGL
Clouds: sky clear below 12,000 feet AGL
Weather: no significant weather observed at this time

METAR text: LTBJ 171920Z VRB04KT 8000 NSC 08/03 Q1021 NOSIG RMK RWY16 02006KT
Conditions at: LTBJ (IZMIR/ADNAN MEND, TR) observed 1920 UTC 17 February 2019
Temperature: 8.0°C (46°F)
Dewpoint: 3.0°C (37°F) [RH = 71%]
Pressure (altimeter): 30.15 inches Hg (1021.0 mb)
Winds: variable direction winds at 5 MPH (4 knots; 2.1 m/s)
Visibility: 5 miles ( 8 km)
Ceiling: at least 12,000 feet AGL
Clouds: sky clear below 12,000 feet AGL
Weather: no significant weather observed at this time

METAR text: LTBJ 171850Z 02008KT 8000 NSC 08/03 Q1021 NOSIG RMK RWY16 02006KT
Conditions at: LTBJ (IZMIR/ADNAN MEND, TR) observed 1850 UTC 17 February 2019
Temperature: 8.0°C (46°F)
Dewpoint: 3.0°C (37°F) [RH = 71%]
Pressure (altimeter): 30.15 inches Hg (1021.0 mb)
Winds: from the NNE (20 degrees) at 9 MPH (8 knots; 4.1 m/s)
Visibility: 5 miles ( 8 km)
Ceiling: at least 12,000 feet AGL
Clouds: sky clear below 12,000 feet AGL
Weather: no significant weather observed at this time

METAR text: LTBJ 171820Z 02009KT CAVOK 08/03 Q1021 NOSIG RMK RWY16 35007KT
Conditions at: LTBJ (IZMIR/ADNAN MEND, TR) observed 1820 UTC 17 February 2019
Temperature: 8.0°C (46°F)
Dewpoint: 3.0°C (37°F) [RH = 71%]
Pressure (altimeter): 30.15 inches Hg (1021.0 mb)
Winds: from the NNE (20 degrees) at 10 MPH (9 knots; 4.6 m/s)
Visibility: 6 or more miles (10+ km)
Ceiling: ceiling and visibility are OK
Clouds: unknown
Weather: no significant weather observed at this time

METAR text: LTBJ 171750Z 03007KT CAVOK 09/03 Q1021 NOSIG RMK RWY16 02006KT
Conditions at: LTBJ (IZMIR/ADNAN MEND, TR) observed 1750 UTC 17 February 2019
Temperature: 9.0°C (48°F)
Dewpoint: 3.0°C (37°F) [RH = 66%]
Pressure (altimeter): 30.15 inches Hg (1021.0 mb)
Winds: from the NNE (30 degrees) at 8 MPH (7 knots; 3.6 m/s)
Visibility: 6 or more miles (10+ km)
Ceiling: ceiling and visibility are OK
Clouds: unknown
Weather: no significant weather observed at this time

METAR text: LTBJ 171720Z 02008KT CAVOK 09/03 Q1021 NOSIG RMK RWY16 35007KT
Conditions at: LTBJ (IZMIR/ADNAN MEND, TR) observed 1720 UTC 17 February 2019
Temperature: 9.0°C (48°F)
Dewpoint: 3.0°C (37°F) [RH = 66%]
Pressure (altimeter): 30.15 inches Hg (1021.0 mb)
Winds: from the NNE (20 degrees) at 9 MPH (8 knots; 4.1 m/s)
Visibility: 6 or more miles (10+ km)
Ceiling: ceiling and visibility are OK
Clouds: unknown
Weather: no significant weather observed at this time

METAR text: LTBJ 171650Z 01008KT CAVOK 09/03 Q1021 NOSIG RMK RWY16 33011KT
Conditions at: LTBJ (IZMIR/ADNAN MEND, TR) observed 1650 UTC 17 February 2019
Temperature: 9.0°C (48°F)
Dewpoint: 3.0°C (37°F) [RH = 66%]
Pressure (altimeter): 30.15 inches Hg (1021.0 mb)
Winds: from the N (10 degrees) at 9 MPH (8 knots; 4.1 m/s)
Visibility: 6 or more miles (10+ km)
Ceiling: ceiling and visibility are OK
Clouds: unknown
Weather: no significant weather observed at this time

METAR text: LTBJ 171620Z 34012KT CAVOK 11/03 Q1021 NOSIG RMK RWY16 32012KT
Conditions at: LTBJ (IZMIR/ADNAN MEND, TR) observed 1620 UTC 17 February 2019
Temperature: 11.0°C (52°F)
Dewpoint: 3.0°C (37°F) [RH = 58%]
Pressure (altimeter): 30.15 inches Hg (1021.0 mb)
Winds: from the NNW (340 degrees) at 14 MPH (12 knots; 6.2 m/s)
Visibility: 6 or more miles (10+ km)
Ceiling: ceiling and visibility are OK
Clouds: unknown
Weather: no significant weather observed at this time

Forecast for: LTBJ (IZMIR/ADNAN MEND, TR)
Text: TAF LTBJ 182240Z 1900/1924 VRB02KT CAVOK
Forecast period: 0000 to 0800 UTC 19 February 2019
Forecast type: FROM: standard forecast or significant change
Winds: variable direction winds at 2 MPH (2 knots; 1.0 m/s)
Visibility: 6 or more miles 10+ km)
Ceiling: unknown
Clouds: missing
Weather: NSW  (no significant weather)
Text: PROB40 1905/1907 4000 BR
Forecast period: 0500 to 0700 UTC 19 February 2019
Forecast type: PROBABLE: 40 percent likelihood of the following during this time
Visibility: 2.49 miles (4.01 km)
Ceiling: unknown
Clouds: missing
Weather: BR  (mist)
Text: BECMG 1908/1910 35012KT
Forecast period: 0800 to 1600 UTC 19 February 2019
Forecast type: BECOMING: Conditions expected to become as follows by 1000 UTC 19 February 2019
Winds: from the N (350 degrees) at 14 MPH (12 knots; 6.2 m/s)
Visibility: 6 or more miles 10+ km)
Ceiling: unknown
Clouds: missing
Weather: NSW  (no significant weather)
Text: BECMG 1916/1918 VRB02KT
Forecast period: 1600 UTC 19 February 2019 to 0000 UTC 20 February 2019
Forecast type: BECOMING: Conditions expected to become as follows by 1800 UTC 19 February 2019
Winds: variable direction winds at 2 MPH (2 knots; 1.0 m/s)
Visibility: 6 or more miles 10+ km)
Ceiling: unknown
Clouds: missing
Weather: NSW  (no significant weather)